createdAt,value
2022-10-17T00:00:13.765Z,101817.09
2022-10-17T00:02:42.470Z,101806.16
2022-10-17T00:05:11.838Z,101799.91
2022-10-17T00:07:41.454Z,101796.09
2022-10-17T00:10:13.177Z,101791.28
2022-10-17T00:12:45.262Z,101797.97
2022-10-17T00:15:19.441Z,101805.53
2022-10-17T00:17:51.067Z,101818.81
2022-10-17T00:20:21.426Z,101825.81
2022-10-17T00:22:49.805Z,101812.81
2022-10-17T00:25:20.919Z,101814.09
2022-10-17T00:27:52.220Z,101784.06
2022-10-17T00:30:27.878Z,101797.13
2022-10-17T00:32:57.618Z,101808.91
2022-10-17T00:35:28.791Z,101811.75
2022-10-17T00:37:57.494Z,101818.41
2022-10-17T00:40:27.601Z,101812.72
2022-10-17T00:42:56.707Z,101823.41
2022-10-17T00:45:28.896Z,101825.81
2022-10-17T00:48:02.385Z,101828.53
2022-10-17T00:50:31.215Z,101822.97
2022-10-17T00:53:03.285Z,101818.50
2022-10-17T00:55:38.315Z,101818.06
2022-10-17T00:58:08.468Z,101811.69
2022-10-17T01:00:39.015Z,101798.63
2022-10-17T01:03:08.410Z,101809.47
2022-10-17T01:05:39.744Z,101803.00
2022-10-17T01:08:12.139Z,101791.16
2022-10-17T01:10:56.321Z,101786.28
2022-10-17T01:13:31.563Z,101780.28
2022-10-17T01:16:13.397Z,101787.06
2022-10-17T01:18:59.766Z,101789.03
2022-10-17T01:21:43.908Z,101798.97
2022-10-17T01:25:04.245Z,101794.97
2022-10-17T01:31:13.292Z,101795.78
2022-10-17T01:34:05.947Z,101796.28
2022-10-17T01:36:48.719Z,101786.94
2022-10-17T01:39:30.274Z,101776.69
2022-10-17T01:42:09.187Z,101783.53
2022-10-17T01:44:46.058Z,101779.13
2022-10-17T01:47:24.387Z,101784.19
2022-10-17T01:49:56.097Z,101783.94
2022-10-17T01:52:29.005Z,101781.84
2022-10-17T01:55:04.771Z,101780.13
2022-10-17T01:57:41.479Z,101770.41
2022-10-17T02:00:16.706Z,101774.66
2022-10-17T02:02:49.382Z,101765.56
2022-10-17T02:05:20.230Z,101768.88
2022-10-17T02:07:49.265Z,101763.56
2022-10-17T02:10:32.423Z,101754.72
2022-10-17T02:13:11.225Z,101744.44
2022-10-17T02:16:28.970Z,101741.09
2022-10-17T02:19:38.128Z,101741.31
2022-10-17T02:22:25.142Z,101718.91
2022-10-17T02:25:09.657Z,101734.41
2022-10-17T02:27:50.058Z,101748.66
2022-10-17T02:30:31.377Z,101728.09
2022-10-17T02:33:07.182Z,101731.84
2022-10-17T02:35:41.639Z,101731.69
2022-10-17T02:38:12.717Z,101730.47
2022-10-17T02:40:43.897Z,101728.13
2022-10-17T02:43:14.398Z,101739.16
2022-10-17T02:45:43.771Z,101736.19
2022-10-17T02:48:24.349Z,101734.59
2022-10-17T02:51:07.290Z,101726.25
2022-10-17T02:53:45.472Z,101731.06
2022-10-17T02:56:21.784Z,101719.16
2022-10-17T02:59:08.894Z,101719.66
2022-10-17T03:01:38.174Z,101735.25
2022-10-17T03:04:10.658Z,101733.38
2022-10-17T03:06:42.728Z,101734.25
2022-10-17T03:09:14.005Z,101712.47
2022-10-17T03:11:43.003Z,101723.03
2022-10-17T03:14:12.544Z,101727.97
2022-10-17T03:16:42.494Z,101729.75
2022-10-17T03:19:12.306Z,101732.94
2022-10-17T03:21:42.073Z,101737.34
2022-10-17T03:24:12.475Z,101729.78
2022-10-17T03:26:43.095Z,101746.81
2022-10-17T03:29:12.397Z,101733.19
2022-10-17T03:31:42.559Z,101744.66
2022-10-17T03:34:11.922Z,101743.19
2022-10-17T03:36:41.914Z,101735.22
2022-10-17T03:39:10.447Z,101744.31
2022-10-17T03:41:39.235Z,101753.78
2022-10-17T03:44:07.625Z,101760.94
2022-10-17T03:46:36.016Z,101749.25
2022-10-17T03:49:04.764Z,101746.63
2022-10-17T03:51:35.451Z,101746.47
2022-10-17T03:54:05.743Z,101744.59
2022-10-17T03:56:34.422Z,101747.97
2022-10-17T03:59:03.780Z,101761.81
2022-10-17T04:01:35.178Z,101749.81
2022-10-17T04:04:03.820Z,101747.66
2022-10-17T04:06:32.529Z,101735.69
2022-10-17T04:09:05.817Z,101734.31
2022-10-17T04:11:35.032Z,101727.53
2022-10-17T04:14:07.025Z,101724.16
2022-10-17T04:16:35.918Z,101716.03
2022-10-17T04:19:05.059Z,101723.31
2022-10-17T04:21:33.532Z,101712.88
2022-10-17T04:24:04.257Z,101718.97
2022-10-17T04:26:35.946Z,101736.59
2022-10-17T04:29:07.704Z,101748.75
2022-10-17T04:31:36.227Z,101742.47
2022-10-17T04:34:05.488Z,101739.75
2022-10-17T04:36:34.802Z,101746.44
2022-10-17T04:39:05.293Z,101753.31
2022-10-17T04:41:35.537Z,101745.84
2022-10-17T04:44:03.915Z,101759.34
2022-10-17T04:46:34.618Z,101759.69
2022-10-17T04:49:04.941Z,101769.00
2022-10-17T04:51:36.249Z,101762.28
2022-10-17T04:54:05.480Z,101756.13
2022-10-17T04:56:39.288Z,101760.53
2022-10-17T04:59:09.984Z,101761.63
2022-10-17T05:01:38.591Z,101766.63
2022-10-17T05:04:07.924Z,101764.03
2022-10-17T05:06:37.947Z,101782.97
2022-10-17T05:09:07.063Z,101789.13
2022-10-17T05:11:40.438Z,101774.78
2022-10-17T05:14:09.943Z,101778.09
2022-10-17T05:16:39.114Z,101788.16
2022-10-17T05:19:08.880Z,101781.16
2022-10-17T05:21:45.024Z,101763.03
2022-10-17T05:24:16.124Z,101772.03
2022-10-17T05:26:46.557Z,101776.25
2022-10-17T05:29:15.841Z,101767.94
2022-10-17T05:31:44.792Z,101781.56
2022-10-17T05:34:14.031Z,101779.38
2022-10-17T05:36:43.367Z,101770.53
2022-10-17T05:39:14.848Z,101785.75
2022-10-17T05:41:43.516Z,101800.44
2022-10-17T05:44:15.733Z,101790.56
2022-10-17T05:46:44.247Z,101788.59
2022-10-17T05:49:31.932Z,101799.38
2022-10-17T05:52:05.532Z,101796.31
2022-10-17T05:54:34.623Z,101799.53
2022-10-17T05:57:04.991Z,101779.50
2022-10-17T05:59:35.785Z,101781.34
2022-10-17T06:02:05.469Z,101787.00
2022-10-17T06:04:35.073Z,101788.75
2022-10-17T06:07:03.817Z,101784.03
2022-10-17T06:09:32.571Z,101777.72
2022-10-17T06:12:01.499Z,101781.34
2022-10-17T06:14:30.053Z,101777.19
2022-10-17T06:17:01.153Z,101780.66
2022-10-17T06:19:32.576Z,101786.00
2022-10-17T06:22:01.252Z,101787.00
2022-10-17T06:24:29.797Z,101792.91
2022-10-17T06:26:59.233Z,101796.94
2022-10-17T06:29:28.374Z,101805.19
2022-10-17T06:31:57.104Z,101796.75
2022-10-17T06:34:27.338Z,101816.31
2022-10-17T06:39:27.464Z,101824.78
2022-10-17T06:41:57.125Z,101821.75
2022-10-17T06:44:31.006Z,101837.06
2022-10-17T06:47:02.454Z,101851.84
2022-10-17T06:49:35.288Z,101846.97
2022-10-17T06:52:04.494Z,101840.97
2022-10-17T06:54:34.879Z,101848.50
2022-10-17T06:57:03.830Z,101873.91
2022-10-17T06:59:34.500Z,101868.00
2022-10-17T07:02:03.504Z,101858.91
2022-10-17T07:04:40.024Z,101869.75
2022-10-17T07:07:09.536Z,101867.31
2022-10-17T07:09:40.482Z,101878.53
2022-10-17T07:12:12.190Z,101870.22
2022-10-17T07:14:40.882Z,101862.09
2022-10-17T07:17:10.635Z,101864.06
2022-10-17T07:19:43.394Z,101876.66
2022-10-17T07:22:14.135Z,101879.06
2022-10-17T07:24:43.846Z,101882.75
2022-10-17T07:27:12.366Z,101895.03
2022-10-17T07:29:42.422Z,101889.38
2022-10-17T07:32:12.116Z,101899.06
2022-10-17T07:34:42.035Z,101905.75
2022-10-17T07:37:10.720Z,101910.69
2022-10-17T07:39:41.189Z,101908.81
2022-10-17T07:42:10.031Z,101896.53
2022-10-17T07:44:38.722Z,101883.88
2022-10-17T07:47:09.256Z,101880.59
2022-10-17T07:49:44.189Z,101884.94
2022-10-17T07:52:13.544Z,101898.66
2022-10-17T07:54:42.703Z,101923.59
2022-10-17T07:57:11.997Z,101930.19
2022-10-17T07:59:40.865Z,101924.47
2022-10-17T08:02:15.436Z,101944.47
2022-10-17T08:04:45.839Z,101958.00
2022-10-17T08:07:22.119Z,101971.84
2022-10-17T08:09:53.374Z,102009.09
2022-10-17T08:12:22.421Z,102021.22
2022-10-17T08:14:52.278Z,102032.13
2022-10-17T08:17:23.369Z,102056.22
2022-10-17T08:19:54.195Z,102077.13
2022-10-17T08:22:23.052Z,102080.38
2022-10-17T08:24:52.651Z,102092.09
2022-10-17T08:27:25.196Z,102090.41
2022-10-17T08:29:55.567Z,102083.16
2022-10-17T08:32:29.958Z,102088.31
2022-10-17T08:35:00.148Z,102091.31
2022-10-17T08:37:31.861Z,102083.34
2022-10-17T08:40:01.635Z,102084.00
2022-10-17T08:43:01.525Z,102090.75
2022-10-17T08:45:37.521Z,102089.91
2022-10-17T08:48:13.832Z,102068.34
2022-10-17T08:50:49.071Z,102057.59
2022-10-17T08:53:24.199Z,102065.34
2022-10-17T08:55:54.972Z,102047.91
2022-10-17T08:58:29.612Z,102030.66
2022-10-17T09:01:12.673Z,102051.22
2022-10-17T09:04:08.926Z,102065.13
2022-10-17T09:06:44.789Z,102066.75
2022-10-17T09:09:29.472Z,102028.97
2022-10-17T09:12:16.951Z,102004.06
2022-10-17T09:15:12.277Z,102012.72
2022-10-17T09:17:53.278Z,102003.41
2022-10-17T09:20:27.628Z,102032.69
2022-10-17T09:23:03.010Z,102042.38
2022-10-17T09:25:35.369Z,102068.44
2022-10-17T09:28:14.114Z,102081.00
2022-10-17T09:30:46.722Z,102078.03
2022-10-17T09:33:34.431Z,102093.72
2022-10-17T09:36:07.618Z,102101.59
2022-10-17T09:38:44.370Z,102113.44
2022-10-17T09:44:23.884Z,102091.88
2022-10-17T09:47:12.841Z,102074.53
2022-10-17T09:49:44.328Z,102084.50
2022-10-17T09:52:17.847Z,102065.56
2022-10-17T09:54:53.753Z,102072.38
2022-10-17T09:57:24.227Z,102067.22
2022-10-17T10:00:01.463Z,102077.78
2022-10-17T10:02:36.345Z,102083.53
2022-10-17T10:05:08.208Z,102087.94
2022-10-17T10:07:40.293Z,102100.72
2022-10-17T10:10:28.132Z,102096.28
2022-10-17T10:13:09.085Z,102102.78
2022-10-17T10:15:41.144Z,102129.44
2022-10-17T10:18:33.229Z,102114.59
2022-10-17T10:21:16.438Z,102135.75
2022-10-17T10:23:46.617Z,102130.09
2022-10-17T10:26:39.694Z,102126.84
2022-10-17T10:29:28.948Z,102140.38
2022-10-17T10:31:59.863Z,102144.97
2022-10-17T10:34:32.706Z,102147.84
2022-10-17T10:37:06.379Z,102153.22
2022-10-17T10:40:06.363Z,102172.81
2022-10-17T10:42:41.406Z,102177.13
2022-10-17T10:45:42.922Z,102179.97
2022-10-17T10:48:23.329Z,102202.16
2022-10-17T10:50:59.440Z,102200.22
2022-10-17T10:53:40.039Z,102194.16
2022-10-17T10:56:15.807Z,102191.91
2022-10-17T10:58:54.526Z,102193.94
2022-10-17T11:01:33.119Z,102193.13
2022-10-17T11:04:40.211Z,102207.06
2022-10-17T11:07:14.846Z,102206.13
2022-10-17T11:09:54.369Z,102203.47
2022-10-17T11:12:29.784Z,102214.94
2022-10-17T11:15:10.067Z,102214.16
2022-10-17T11:17:47.285Z,102217.56
2022-10-17T11:20:22.917Z,102225.38
2022-10-17T11:22:59.483Z,102212.88
2022-10-17T11:25:35.930Z,102220.41
2022-10-17T11:28:12.977Z,102220.94
2022-10-17T11:30:51.354Z,102226.50
2022-10-17T11:33:29.342Z,102238.63
2022-10-17T11:36:11.426Z,102252.78
2022-10-17T11:38:54.546Z,102251.84
2022-10-17T11:41:31.226Z,102245.47
2022-10-17T11:44:06.569Z,102249.34
2022-10-17T11:46:37.729Z,102247.25
2022-10-17T11:49:19.861Z,102243.16
2022-10-17T11:52:02.363Z,102251.22
2022-10-17T11:54:36.789Z,102250.03
2022-10-17T11:57:41.266Z,102258.88
2022-10-17T12:00:35.770Z,102262.25
2022-10-17T12:03:33.030Z,102271.09
2022-10-17T12:06:11.475Z,102272.59
2022-10-17T12:08:52.029Z,102262.53
2022-10-17T12:11:40.809Z,102255.50
2022-10-17T12:14:42.667Z,102260.09
2022-10-17T12:17:35.454Z,102267.59
2022-10-17T12:20:35.113Z,102273.22
2022-10-17T12:23:30.533Z,102263.44
2022-10-17T12:26:04.690Z,102281.81
2022-10-17T12:28:35.875Z,102282.25
2022-10-17T12:31:13.390Z,102278.66
2022-10-17T12:33:52.247Z,102267.56
2022-10-17T12:36:43.251Z,102270.78
2022-10-17T12:39:47.618Z,102286.94
2022-10-17T12:42:34.659Z,102287.00
2022-10-17T12:45:03.486Z,102295.56
2022-10-17T12:47:40.621Z,102297.66
2022-10-17T12:54:00.696Z,102286.97
2022-10-17T12:56:38.253Z,102301.25
2022-10-17T12:59:27.031Z,102307.34
2022-10-17T13:02:02.491Z,102301.38
2022-10-17T13:04:35.349Z,102297.78
2022-10-17T13:07:05.559Z,102305.69
2022-10-17T13:09:44.520Z,102317.00
2022-10-17T13:12:20.445Z,102312.13
2022-10-17T13:14:51.506Z,102305.28
2022-10-17T13:17:28.260Z,102300.47
2022-10-17T13:19:58.373Z,102300.75
2022-10-17T13:22:29.939Z,102304.69
2022-10-17T13:25:18.090Z,102308.25
2022-10-17T13:27:47.631Z,102322.19
2022-10-17T13:30:32.006Z,102333.28
2022-10-17T13:33:03.731Z,102330.06
2022-10-17T13:38:32.180Z,102335.66
2022-10-17T13:41:33.711Z,102331.31
2022-10-17T13:43:55.018Z,102341.59
2022-10-17T13:46:39.251Z,102340.56
2022-10-17T13:49:23.246Z,102335.38
2022-10-17T13:51:58.855Z,102332.44
2022-10-17T13:54:48.397Z,102339.50
2022-10-17T13:57:27.012Z,102323.22
2022-10-17T13:59:59.049Z,102325.88
2022-10-17T14:02:31.109Z,102322.53
2022-10-17T14:05:17.679Z,102331.81
2022-10-17T14:10:45.303Z,102318.63
2022-10-17T14:13:27.709Z,102310.97
2022-10-17T14:16:00.574Z,102299.91
2022-10-17T14:18:36.411Z,102300.94
2022-10-17T14:24:16.124Z,102307.81
2022-10-17T14:26:55.289Z,102315.06
2022-10-17T14:29:29.832Z,102308.91
2022-10-17T14:32:08.460Z,102299.28
2022-10-17T14:34:40.628Z,102310.03
2022-10-17T14:37:14.487Z,102305.88
2022-10-17T14:39:45.194Z,102312.16
2022-10-17T14:42:21.730Z,102312.47
2022-10-17T14:44:56.256Z,102313.88
2022-10-17T14:47:42.609Z,102319.97
2022-10-17T14:50:25.948Z,102325.72
2022-10-17T14:53:04.156Z,102338.19
2022-10-17T14:55:36.094Z,102348.03
2022-10-17T14:58:19.341Z,102338.19
2022-10-17T15:00:49.354Z,102344.72
2022-10-17T15:03:19.519Z,102356.97
2022-10-17T15:05:48.435Z,102357.22
2022-10-17T15:08:20.025Z,102354.78
2022-10-17T15:10:51.974Z,102363.69
2022-10-17T15:13:31.111Z,102359.88
2022-10-17T15:16:02.933Z,102361.94
2022-10-17T15:18:32.440Z,102376.16
2022-10-17T15:21:05.315Z,102378.06
2022-10-17T15:23:48.227Z,102382.81
2022-10-17T15:26:20.825Z,102381.25
2022-10-17T15:28:52.526Z,102383.22
2022-10-17T15:31:27.209Z,102388.13
2022-10-17T15:33:55.689Z,102402.44
2022-10-17T15:36:27.742Z,102406.06
2022-10-17T15:38:59.909Z,102416.94
2022-10-17T15:41:31.966Z,102413.56
2022-10-17T15:44:01.568Z,102410.13
2022-10-17T15:46:35.591Z,102415.81
2022-10-17T15:49:08.949Z,102416.69
2022-10-17T15:51:38.044Z,102416.25
2022-10-17T15:54:06.956Z,102418.78
2022-10-17T15:56:39.492Z,102419.41
2022-10-17T15:59:14.750Z,102413.41
2022-10-17T16:01:45.387Z,102419.75
2022-10-17T16:04:15.717Z,102421.13
2022-10-17T16:06:44.597Z,102423.88
2022-10-17T16:09:13.605Z,102421.50
2022-10-17T16:11:45.895Z,102430.06
2022-10-17T16:14:18.093Z,102428.09
2022-10-17T16:16:48.289Z,102426.78
2022-10-17T16:19:17.055Z,102424.50
2022-10-17T16:21:46.156Z,102425.81
2022-10-17T16:24:14.712Z,102436.66
2022-10-17T16:26:44.906Z,102436.69
2022-10-17T16:29:14.488Z,102441.91
2022-10-17T16:31:47.034Z,102459.69
2022-10-17T16:34:17.754Z,102454.34
2022-10-17T16:36:49.602Z,102458.94
2022-10-17T16:39:18.180Z,102464.22
2022-10-17T16:41:47.995Z,102465.91
2022-10-17T16:44:19.345Z,102462.34
2022-10-17T16:46:47.967Z,102477.69
2022-10-17T16:49:19.372Z,102468.72
2022-10-17T16:51:48.513Z,102470.09
2022-10-17T16:54:19.310Z,102479.97
2022-10-17T16:56:49.356Z,102485.72
2022-10-17T16:59:18.412Z,102488.78
2022-10-17T17:01:47.202Z,102506.41
2022-10-17T17:04:16.403Z,102498.81
2022-10-17T17:06:48.492Z,102492.69
2022-10-17T17:09:17.206Z,102500.66
2022-10-17T17:11:45.749Z,102502.59
2022-10-17T17:14:17.309Z,102495.28
2022-10-17T17:16:47.311Z,102504.53
2022-10-17T17:19:18.139Z,102506.38
2022-10-17T17:21:50.935Z,102506.44
2022-10-17T17:24:22.324Z,102516.75
2022-10-17T17:26:53.977Z,102520.03
2022-10-17T17:29:24.246Z,102528.78
2022-10-17T17:31:52.786Z,102525.84
2022-10-17T17:34:21.884Z,102530.63
2022-10-17T17:36:51.945Z,102526.59
2022-10-17T17:39:21.073Z,102518.66
2022-10-17T17:41:50.367Z,102528.00
2022-10-17T17:44:19.588Z,102538.22
2022-10-17T17:46:48.530Z,102548.66
2022-10-17T17:49:17.410Z,102541.53
2022-10-17T17:51:47.840Z,102542.00
2022-10-17T17:54:17.964Z,102552.38
2022-10-17T17:56:47.116Z,102556.81
2022-10-17T17:59:15.654Z,102555.28
2022-10-17T18:01:45.092Z,102559.34
2022-10-17T18:04:14.049Z,102562.03
2022-10-17T18:06:42.831Z,102565.88
2022-10-17T18:09:12.122Z,102569.09
2022-10-17T18:11:42.036Z,102577.22
2022-10-17T18:14:16.854Z,102582.16
2022-10-17T18:16:45.946Z,102588.75
2022-10-17T18:19:14.414Z,102573.81
2022-10-17T18:21:44.550Z,102597.69
2022-10-17T18:24:13.294Z,102611.88
2022-10-17T18:26:43.248Z,102604.13
2022-10-17T18:29:12.874Z,102601.34
2022-10-17T18:31:41.159Z,102586.44
2022-10-17T18:34:11.131Z,102591.94
2022-10-17T18:36:40.680Z,102595.53
2022-10-17T18:39:09.323Z,102584.28
2022-10-17T18:41:37.709Z,102579.50
2022-10-17T18:44:13.163Z,102582.28
2022-10-17T18:46:41.807Z,102600.19
2022-10-17T18:49:11.874Z,102593.97
2022-10-17T18:51:40.497Z,102605.84
2022-10-17T18:54:16.799Z,102614.91
2022-10-17T18:56:45.535Z,102609.69
2022-10-17T18:59:16.040Z,102618.41
2022-10-17T19:01:44.895Z,102624.44
2022-10-17T19:04:14.332Z,102615.94
2022-10-17T19:06:43.810Z,102618.53
2022-10-17T19:09:15.421Z,102627.72
2022-10-17T19:11:44.712Z,102627.72
2022-10-17T19:14:15.192Z,102624.75
2022-10-17T19:16:47.185Z,102612.47
2022-10-17T19:19:19.522Z,102601.72
2022-10-17T19:21:50.141Z,102612.22
2022-10-17T19:24:24.716Z,102611.44
2022-10-17T19:26:56.154Z,102611.78
2022-10-17T19:29:31.769Z,102613.25
2022-10-17T19:32:01.325Z,102621.25
2022-10-17T19:34:30.159Z,102617.28
2022-10-17T19:36:58.550Z,102603.88
2022-10-17T19:39:27.225Z,102608.22
2022-10-17T19:41:56.338Z,102602.41
2022-10-17T19:44:26.587Z,102600.38
2022-10-17T19:46:56.982Z,102613.88
2022-10-17T19:49:28.176Z,102616.25
2022-10-17T19:51:57.480Z,102611.56
2022-10-17T19:54:26.131Z,102617.09
2022-10-17T19:56:55.429Z,102619.91
2022-10-17T19:59:26.858Z,102617.53
2022-10-17T20:01:57.668Z,102623.28
2022-10-17T20:04:26.322Z,102624.91
2022-10-17T20:06:55.470Z,102626.47
2022-10-17T20:09:25.091Z,102633.81
2022-10-17T20:11:53.535Z,102632.47
2022-10-17T20:14:22.141Z,102647.25
2022-10-17T20:16:54.113Z,102654.25
2022-10-17T20:19:23.010Z,102659.75
2022-10-17T20:21:52.914Z,102666.06
2022-10-17T20:24:23.150Z,102668.94
2022-10-17T20:26:54.266Z,102668.41
2022-10-17T20:29:26.025Z,102673.84
2022-10-17T20:31:56.644Z,102680.06
2022-10-17T20:34:26.060Z,102679.78
2022-10-17T20:36:59.130Z,102692.53
2022-10-17T20:39:28.872Z,102700.59
2022-10-17T20:41:57.520Z,102696.81
2022-10-17T20:44:26.165Z,102710.75
2022-10-17T20:47:02.211Z,102707.56
2022-10-17T20:49:32.515Z,102713.97
2022-10-17T20:52:02.057Z,102712.13
2022-10-17T20:54:30.687Z,102722.09
2022-10-17T20:57:03.940Z,102722.88
2022-10-17T20:59:35.177Z,102719.13
2022-10-17T21:02:07.431Z,102722.28
2022-10-17T21:04:51.236Z,102725.50
2022-10-17T21:07:19.636Z,102719.50
2022-10-17T21:09:48.345Z,102726.72
2022-10-17T21:12:26.066Z,102730.66
2022-10-17T21:15:06.763Z,102725.44
2022-10-17T21:17:37.828Z,102733.66
2022-10-17T21:20:08.862Z,102735.91
2022-10-17T21:22:37.521Z,102744.84
2022-10-17T21:25:07.854Z,102741.25
2022-10-17T21:27:37.468Z,102739.75
2022-10-17T21:32:52.016Z,102737.31
2022-10-17T21:35:21.361Z,102739.06
2022-10-17T21:37:50.098Z,102736.53
2022-10-17T21:40:21.552Z,102742.72
2022-10-17T21:42:49.981Z,102734.78
2022-10-17T21:45:25.250Z,102739.56
2022-10-17T21:48:13.179Z,102747.19
2022-10-17T21:50:42.362Z,102739.16
2022-10-17T21:53:11.262Z,102737.41
2022-10-17T21:55:41.263Z,102735.56
2022-10-17T21:58:09.997Z,102737.66
2022-10-17T22:00:39.689Z,102746.88
2022-10-17T22:03:12.757Z,102745.13
2022-10-17T22:05:41.567Z,102745.97
2022-10-17T22:08:09.954Z,102750.22
2022-10-17T22:10:40.159Z,102742.84
2022-10-17T22:13:10.002Z,102748.50
2022-10-17T22:15:38.383Z,102747.72
2022-10-17T22:18:09.147Z,102756.97
2022-10-17T22:20:38.306Z,102755.47
2022-10-17T22:23:08.305Z,102748.38
2022-10-17T22:25:39.044Z,102752.28
2022-10-17T22:28:07.530Z,102747.69
2022-10-17T22:30:36.270Z,102756.03
2022-10-17T22:33:04.652Z,102762.59
2022-10-17T22:35:35.376Z,102761.00
2022-10-17T22:38:04.234Z,102765.84
2022-10-17T22:40:32.699Z,102759.56
2022-10-17T22:43:01.465Z,102763.06
2022-10-17T22:45:31.175Z,102762.28
2022-10-17T22:48:00.721Z,102763.53
2022-10-17T22:50:29.409Z,102772.53
2022-10-17T22:52:59.197Z,102769.75
2022-10-17T22:55:27.861Z,102774.44
2022-10-17T22:57:57.780Z,102781.75
2022-10-17T23:00:26.279Z,102781.94
2022-10-17T23:02:55.754Z,102768.56
2022-10-17T23:05:24.652Z,102759.78
2022-10-17T23:07:53.541Z,102764.81
2022-10-17T23:10:23.714Z,102768.47
2022-10-17T23:12:52.414Z,102758.78
2022-10-17T23:15:21.305Z,102766.00
2022-10-17T23:17:49.736Z,102766.00
2022-10-17T23:20:18.743Z,102761.72
2022-10-17T23:22:47.302Z,102759.22
2022-10-17T23:25:15.617Z,102752.56
2022-10-17T23:27:45.875Z,102762.44
2022-10-17T23:30:17.194Z,102764.31
2022-10-17T23:32:46.692Z,102769.94
2022-10-17T23:35:17.884Z,102769.06
2022-10-17T23:37:46.774Z,102769.16
2022-10-17T23:40:15.698Z,102763.16
2022-10-17T23:42:49.157Z,102770.19
2022-10-17T23:45:17.886Z,102775.59
2022-10-17T23:47:48.140Z,102769.31
2022-10-17T23:50:17.465Z,102774.19
2022-10-17T23:52:47.403Z,102776.88
2022-10-17T23:55:16.636Z,102775.00
2022-10-17T23:57:46.937Z,102772.63
